createdAt,value
2023-05-14T00:00:30.876Z,7.00
2023-05-14T00:02:57.545Z,3.50
2023-05-14T00:05:24.512Z,4.32
2023-05-14T00:07:51.048Z,3.78
2023-05-14T00:10:19.079Z,6.20
2023-05-14T00:12:45.782Z,7.00
2023-05-14T00:15:12.585Z,14.77
2023-05-14T00:17:39.203Z,6.40
2023-05-14T00:20:09.168Z,7.32
2023-05-14T00:22:37.009Z,7.25
2023-05-14T00:25:04.040Z,7.47
2023-05-14T00:27:30.725Z,7.30
2023-05-14T00:29:57.453Z,5.28
2023-05-14T00:32:24.464Z,6.38
2023-05-14T00:34:51.470Z,4.82
2023-05-14T00:37:18.190Z,5.65
2023-05-14T00:39:44.753Z,8.75
2023-05-14T00:42:11.394Z,6.28
2023-05-14T00:44:37.911Z,10.02
2023-05-14T00:47:05.174Z,10.77
2023-05-14T00:49:32.817Z,5.88
2023-05-14T00:52:00.367Z,4.88
2023-05-14T00:54:28.072Z,4.72
2023-05-14T00:56:55.140Z,5.75
2023-05-14T00:59:21.717Z,8.20
2023-05-14T01:01:48.284Z,8.75
2023-05-14T01:04:14.963Z,7.15
2023-05-14T01:07:13.052Z,7.03
2023-05-14T01:10:06.009Z,8.07
2023-05-14T01:13:02.064Z,9.60
2023-05-14T01:15:33.295Z,5.45
2023-05-14T01:18:05.546Z,8.85
2023-05-14T01:20:32.206Z,6.20
2023-05-14T01:22:58.699Z,9.35
2023-05-14T01:25:26.052Z,5.75
2023-05-14T01:28:15.363Z,8.65
2023-05-14T01:31:02.166Z,8.77
2023-05-14T01:33:32.306Z,8.35
2023-05-14T01:35:59.381Z,6.20
2023-05-14T01:38:30.225Z,5.18
2023-05-14T01:40:57.514Z,6.07
2023-05-14T01:43:24.438Z,8.55
2023-05-14T01:45:51.227Z,17.98
2023-05-14T01:48:18.339Z,5.95
2023-05-14T01:50:44.964Z,5.50
2023-05-14T01:53:11.597Z,6.88
2023-05-14T01:55:38.240Z,11.70
2023-05-14T01:58:05.350Z,6.57
2023-05-14T02:00:32.079Z,6.35
2023-05-14T02:02:58.635Z,5.57
2023-05-14T02:05:25.250Z,5.85
2023-05-14T02:07:54.049Z,11.10
2023-05-14T02:10:20.942Z,9.60
2023-05-14T02:12:49.564Z,11.45
2023-05-14T02:15:16.535Z,11.77
2023-05-14T02:17:43.180Z,7.55
2023-05-14T02:20:11.323Z,5.22
2023-05-14T02:22:37.998Z,6.70
2023-05-14T02:25:04.964Z,6.50
2023-05-14T02:27:31.526Z,7.65
2023-05-14T02:30:00.656Z,4.78
2023-05-14T02:32:28.154Z,6.88
2023-05-14T02:34:54.996Z,5.95
2023-05-14T02:37:21.763Z,7.60
2023-05-14T02:39:49.016Z,13.35
2023-05-14T02:42:15.722Z,8.98
2023-05-14T02:44:42.276Z,9.77
2023-05-14T02:47:08.862Z,8.43
2023-05-14T02:49:35.445Z,15.98
2023-05-14T02:52:01.975Z,9.70
2023-05-14T02:54:28.617Z,7.13
2023-05-14T02:56:55.156Z,5.22
2023-05-14T02:59:23.601Z,7.85
2023-05-14T03:01:50.788Z,6.07
2023-05-14T03:04:17.969Z,7.38
2023-05-14T03:06:44.528Z,5.65
2023-05-14T03:09:11.133Z,7.70
2023-05-14T03:11:37.739Z,13.07
2023-05-14T03:14:04.298Z,6.90
2023-05-14T03:16:30.955Z,9.18
2023-05-14T03:18:57.735Z,12.65
2023-05-14T03:21:24.344Z,6.90
2023-05-14T03:23:52.446Z,9.27
2023-05-14T03:26:19.169Z,7.20
2023-05-14T03:28:45.757Z,8.25
2023-05-14T03:31:12.704Z,7.28
2023-05-14T03:33:39.512Z,7.70
2023-05-14T03:36:06.197Z,7.70
2023-05-14T03:38:32.747Z,8.15
2023-05-14T03:40:59.277Z,10.10
2023-05-14T03:43:26.073Z,7.57
2023-05-14T03:45:52.986Z,6.85
2023-05-14T03:48:20.414Z,7.72
2023-05-14T03:50:47.687Z,11.75
2023-05-14T03:53:14.509Z,14.55
2023-05-14T03:55:41.027Z,10.73
2023-05-14T03:58:13.876Z,7.80
2023-05-14T04:00:43.733Z,7.45
2023-05-14T04:03:11.700Z,7.35
2023-05-14T04:05:38.389Z,8.10
2023-05-14T04:08:05.745Z,14.73
2023-05-14T04:10:32.335Z,11.27
2023-05-14T04:13:00.204Z,7.72
2023-05-14T04:15:31.225Z,9.95
2023-05-14T04:17:58.955Z,7.10
2023-05-14T04:20:25.697Z,8.98
2023-05-14T04:22:52.470Z,11.48
2023-05-14T04:25:19.331Z,8.07
2023-05-14T04:27:45.931Z,11.48
2023-05-14T04:30:12.765Z,8.48
2023-05-14T04:32:39.872Z,6.60
2023-05-14T04:35:07.416Z,7.40
2023-05-14T04:37:33.963Z,7.50
2023-05-14T04:40:00.893Z,7.95
2023-05-14T04:42:27.419Z,7.75
2023-05-14T04:44:53.968Z,6.68
2023-05-14T04:47:21.078Z,6.35
2023-05-14T04:49:48.053Z,7.63
2023-05-14T04:52:14.642Z,8.80
2023-05-14T04:54:41.250Z,9.05
2023-05-14T04:57:07.804Z,7.97
2023-05-14T04:59:34.507Z,7.00
2023-05-14T05:02:01.040Z,6.72
2023-05-14T05:04:27.755Z,6.60
2023-05-14T05:06:54.351Z,7.30
2023-05-14T05:09:20.894Z,8.20
2023-05-14T05:11:47.411Z,7.93
2023-05-14T05:14:14.050Z,7.15
2023-05-14T05:16:40.587Z,6.47
2023-05-14T05:19:07.248Z,7.82
2023-05-14T05:21:34.334Z,5.95
2023-05-14T05:24:00.868Z,8.30
2023-05-14T05:26:27.940Z,7.25
2023-05-14T05:28:54.503Z,10.30
2023-05-14T05:31:21.040Z,7.05
2023-05-14T05:33:47.996Z,14.30
2023-05-14T05:36:14.566Z,8.30
2023-05-14T05:38:41.403Z,7.47
2023-05-14T05:41:08.040Z,9.10
2023-05-14T05:43:34.638Z,8.50
2023-05-14T05:46:01.497Z,8.43
2023-05-14T05:48:28.228Z,11.07
2023-05-14T05:50:55.087Z,8.32
2023-05-14T05:53:21.921Z,9.05
2023-05-14T05:55:48.588Z,14.18
2023-05-14T05:58:17.166Z,10.43
2023-05-14T06:00:43.922Z,10.75
2023-05-14T06:03:11.445Z,9.88
2023-05-14T06:05:38.039Z,8.15
2023-05-14T06:08:05.050Z,10.45
2023-05-14T06:10:31.898Z,8.85
2023-05-14T06:12:58.472Z,15.02
2023-05-14T06:15:24.999Z,12.02
2023-05-14T06:17:51.835Z,10.10
2023-05-14T06:20:19.103Z,9.80
2023-05-14T06:22:45.765Z,8.60
2023-05-14T06:25:12.357Z,14.38
2023-05-14T06:27:38.989Z,11.02
2023-05-14T06:30:06.962Z,12.93
2023-05-14T06:32:33.588Z,9.57
2023-05-14T06:35:00.221Z,11.25
2023-05-14T06:37:26.751Z,8.85
2023-05-14T06:39:53.883Z,9.95
2023-05-14T06:42:21.397Z,8.77
2023-05-14T06:44:47.931Z,11.88
2023-05-14T06:47:14.644Z,8.77
2023-05-14T06:49:41.190Z,11.20
2023-05-14T06:52:10.384Z,12.32
2023-05-14T06:54:36.957Z,9.85
2023-05-14T06:57:03.653Z,12.48
2023-05-14T06:59:30.420Z,12.02
2023-05-14T07:01:57.043Z,10.90
2023-05-14T07:04:23.667Z,13.77
2023-05-14T07:06:50.304Z,8.45
2023-05-14T07:09:16.840Z,8.60
2023-05-14T07:11:43.443Z,7.00
2023-05-14T07:14:09.961Z,9.32
2023-05-14T07:16:37.029Z,9.32
2023-05-14T07:19:03.664Z,11.10
2023-05-14T07:21:30.286Z,9.77
2023-05-14T07:23:56.766Z,8.45
2023-05-14T07:26:24.489Z,7.65
2023-05-14T07:28:51.364Z,10.77
2023-05-14T07:31:18.157Z,9.23
2023-05-14T07:33:44.716Z,8.27
2023-05-14T07:36:11.354Z,10.82
2023-05-14T07:38:38.041Z,12.07
2023-05-14T07:41:04.897Z,12.82
2023-05-14T07:43:31.601Z,8.35
2023-05-14T07:45:58.192Z,7.05
2023-05-14T07:48:24.730Z,9.10
2023-05-14T07:50:51.813Z,13.77
2023-05-14T07:53:18.388Z,6.45
2023-05-14T07:55:45.610Z,6.38
2023-05-14T07:58:12.102Z,6.75
2023-05-14T08:00:38.721Z,8.63
2023-05-14T08:03:05.343Z,7.00
2023-05-14T08:05:32.862Z,6.82
2023-05-14T08:07:59.448Z,8.82
2023-05-14T08:10:26.466Z,4.95
2023-05-14T08:12:53.362Z,5.53
2023-05-14T08:15:20.028Z,5.13
2023-05-14T08:17:46.579Z,6.05
2023-05-14T08:20:13.216Z,6.40
2023-05-14T08:22:39.868Z,8.07
2023-05-14T08:25:07.671Z,5.82
2023-05-14T08:27:34.517Z,4.72
2023-05-14T08:30:01.073Z,6.13
2023-05-14T08:32:27.617Z,3.97
2023-05-14T08:34:54.204Z,4.78
2023-05-14T08:37:20.690Z,6.38
2023-05-14T08:39:47.456Z,7.03
2023-05-14T08:42:15.885Z,5.50
2023-05-14T08:44:50.132Z,5.72
2023-05-14T08:47:18.762Z,11.00
2023-05-14T08:49:47.837Z,5.22
2023-05-14T08:52:17.737Z,8.95
2023-05-14T08:54:46.566Z,6.65
2023-05-14T08:57:14.089Z,6.38
2023-05-14T08:59:41.122Z,4.68
2023-05-14T09:02:10.120Z,6.57
2023-05-14T09:04:38.304Z,5.57
2023-05-14T09:07:07.164Z,4.88
2023-05-14T09:09:34.082Z,5.45
2023-05-14T09:12:01.158Z,5.25
2023-05-14T09:14:27.720Z,13.05
2023-05-14T09:16:54.785Z,3.72
2023-05-14T09:19:21.661Z,3.08
2023-05-14T09:21:49.468Z,5.85
2023-05-14T09:24:24.931Z,3.38
2023-05-14T09:29:27.481Z,3.80
2023-05-14T09:31:55.300Z,7.57
2023-05-14T09:34:30.468Z,5.95
2023-05-14T09:36:58.889Z,13.10
2023-05-14T09:39:26.525Z,6.15
2023-05-14T09:41:54.185Z,3.70
2023-05-14T09:44:21.366Z,4.47
2023-05-14T09:46:48.629Z,5.78
2023-05-14T09:49:16.004Z,2.88
2023-05-14T09:51:43.384Z,3.97
2023-05-14T09:54:10.540Z,3.88
2023-05-14T09:56:37.890Z,4.18
2023-05-14T09:59:04.380Z,2.53
2023-05-14T10:01:32.879Z,3.75
2023-05-14T10:03:59.953Z,4.22
2023-05-14T10:06:30.392Z,5.57
2023-05-14T10:09:04.116Z,2.85
2023-05-14T10:11:33.537Z,2.65
2023-05-14T10:14:08.368Z,1.80
2023-05-14T10:16:40.317Z,2.35
2023-05-14T10:19:12.026Z,3.95
2023-05-14T10:21:40.885Z,2.08
2023-05-14T10:24:08.351Z,2.15
2023-05-14T10:26:40.637Z,2.00
2023-05-14T10:29:09.254Z,2.90
2023-05-14T10:31:47.702Z,1.63
2023-05-14T10:34:40.599Z,2.63
2023-05-14T10:37:14.893Z,3.35
2023-05-14T10:39:48.346Z,3.22
2023-05-14T10:42:27.213Z,8.00
2023-05-14T10:44:58.276Z,2.00
2023-05-14T10:47:36.330Z,10.23
2023-05-14T10:50:05.936Z,1.65
2023-05-14T10:52:33.871Z,2.42
2023-05-14T10:55:07.668Z,5.85
2023-05-14T10:57:39.174Z,8.02
2023-05-14T11:00:07.715Z,3.85
2023-05-14T11:02:42.224Z,2.58
2023-05-14T11:05:15.268Z,3.17
2023-05-14T11:07:42.696Z,1.90
2023-05-14T11:10:17.798Z,7.05
2023-05-14T11:12:46.686Z,1.70
2023-05-14T11:15:21.695Z,2.30
2023-05-14T11:17:50.592Z,2.80
2023-05-14T11:20:18.109Z,3.03
2023-05-14T11:22:46.299Z,4.35
2023-05-14T11:25:14.722Z,3.53
2023-05-14T11:27:43.692Z,3.22
2023-05-14T11:30:17.679Z,6.40
2023-05-14T11:32:46.544Z,1.98
2023-05-14T11:35:13.558Z,2.10
2023-05-14T11:37:40.249Z,2.83
2023-05-14T11:40:12.395Z,4.63
2023-05-14T11:42:39.122Z,2.72
2023-05-14T11:45:06.267Z,5.88
2023-05-14T11:47:32.909Z,5.38
2023-05-14T11:50:00.713Z,4.10
2023-05-14T11:52:27.328Z,3.30
2023-05-14T11:54:53.825Z,2.45
2023-05-14T11:57:21.598Z,4.63
2023-05-14T11:59:49.704Z,5.00
2023-05-14T12:02:18.607Z,1.60
2023-05-14T12:04:50.510Z,3.22
2023-05-14T12:07:17.694Z,2.35
2023-05-14T12:09:49.522Z,2.17
2023-05-14T12:12:19.461Z,3.65
2023-05-14T12:14:46.704Z,2.45
2023-05-14T12:17:22.157Z,1.80
2023-05-14T12:19:50.920Z,2.33
2023-05-14T12:22:19.794Z,3.92
2023-05-14T12:24:54.813Z,2.05
2023-05-14T12:27:23.983Z,1.88
2023-05-14T12:32:26.353Z,5.88
2023-05-14T12:34:52.871Z,2.17
2023-05-14T12:37:19.435Z,1.90
2023-05-14T12:39:45.971Z,2.10
2023-05-14T12:42:12.460Z,2.67
2023-05-14T12:44:38.965Z,2.00
2023-05-14T12:47:05.884Z,2.65
2023-05-14T12:49:32.421Z,1.88
2023-05-14T12:52:17.090Z,6.68
2023-05-14T12:54:45.525Z,2.95
2023-05-14T12:57:12.101Z,6.53
2023-05-14T12:59:38.694Z,1.38
2023-05-14T13:02:05.389Z,2.47
2023-05-14T13:04:32.122Z,9.35
2023-05-14T13:06:58.673Z,2.38
2023-05-14T13:09:27.609Z,2.20
2023-05-14T13:11:54.078Z,1.52
2023-05-14T13:14:20.577Z,1.63
2023-05-14T13:16:47.114Z,3.08
2023-05-14T13:19:13.830Z,1.65
2023-05-14T13:21:40.508Z,4.18
2023-05-14T13:24:07.450Z,1.95
2023-05-14T13:26:33.985Z,3.78
2023-05-14T13:29:00.653Z,2.80
2023-05-14T13:31:27.277Z,1.48
2023-05-14T13:33:53.992Z,4.15
2023-05-14T13:36:20.730Z,6.55
2023-05-14T13:38:47.526Z,2.78
2023-05-14T13:41:14.031Z,6.78
2023-05-14T13:43:40.759Z,1.77
2023-05-14T13:46:07.523Z,5.03
2023-05-14T13:48:35.517Z,2.70
2023-05-14T13:51:02.036Z,18.98
2023-05-14T13:53:28.832Z,1.70
2023-05-14T13:55:58.264Z,1.17
2023-05-14T13:58:25.942Z,7.65
2023-05-14T14:00:53.017Z,1.35
2023-05-14T14:03:20.056Z,2.45
2023-05-14T14:05:46.658Z,3.42
2023-05-14T14:10:48.512Z,2.67
2023-05-14T14:13:15.154Z,1.20
2023-05-14T14:15:42.480Z,3.08
2023-05-14T14:18:09.069Z,1.38
2023-05-14T14:20:36.161Z,2.45
2023-05-14T14:23:02.711Z,3.40
2023-05-14T14:25:29.325Z,1.13
2023-05-14T14:27:55.985Z,1.42
2023-05-14T14:30:22.481Z,1.20
2023-05-14T14:32:49.738Z,3.20
2023-05-14T14:35:18.137Z,1.33
2023-05-14T14:37:48.934Z,1.00
2023-05-14T14:40:16.647Z,3.60
2023-05-14T14:42:43.816Z,2.35
2023-05-14T14:45:11.173Z,5.90
2023-05-14T14:47:37.831Z,2.38
2023-05-14T14:50:05.232Z,1.23
2023-05-14T14:57:08.677Z,4.55
2023-05-14T14:59:35.600Z,1.58
2023-05-14T15:02:02.147Z,4.60
2023-05-14T15:04:32.694Z,3.00
2023-05-14T15:06:59.417Z,2.95
2023-05-14T15:09:25.935Z,2.70
2023-05-14T15:11:52.613Z,3.78
2023-05-14T15:14:19.179Z,3.53
2023-05-14T15:16:46.191Z,1.38
2023-05-14T15:19:13.496Z,3.17
2023-05-14T15:21:40.779Z,2.47
2023-05-14T15:24:10.792Z,1.20
2023-05-14T15:26:37.351Z,2.30
2023-05-14T15:29:05.632Z,1.58
2023-05-14T15:31:32.360Z,1.63
2023-05-14T15:33:58.947Z,2.88
2023-05-14T15:36:25.658Z,2.63
2023-05-14T15:38:52.612Z,1.02
2023-05-14T15:41:19.433Z,1.30
2023-05-14T15:43:46.279Z,2.33
2023-05-14T15:46:13.126Z,3.60
2023-05-14T15:48:41.312Z,1.90
2023-05-14T15:51:08.179Z,3.13
2023-05-14T15:53:34.778Z,7.63
2023-05-14T15:56:01.368Z,3.90
2023-05-14T15:58:28.134Z,3.92
2023-05-14T16:00:54.982Z,1.13
2023-05-14T16:03:21.698Z,2.22
2023-05-14T16:05:48.771Z,5.13
2023-05-14T16:08:16.110Z,18.60
2023-05-14T16:10:43.081Z,3.53
2023-05-14T16:13:09.624Z,2.08
2023-05-14T16:15:36.236Z,4.55
2023-05-14T16:18:02.822Z,1.60
2023-05-14T16:20:29.430Z,2.45
2023-05-14T16:22:56.046Z,2.75
2023-05-14T16:25:22.964Z,2.00
2023-05-14T16:27:49.687Z,2.05
2023-05-14T16:30:16.463Z,2.28
2023-05-14T16:32:43.221Z,2.38
2023-05-14T16:35:09.851Z,2.28
2023-05-14T16:37:36.395Z,4.88
2023-05-14T16:40:03.724Z,3.00
2023-05-14T16:42:30.760Z,2.20
2023-05-14T16:44:57.340Z,1.70
2023-05-14T16:47:23.851Z,4.15
2023-05-14T16:49:50.568Z,2.65
2023-05-14T16:52:17.056Z,1.70
2023-05-14T16:54:43.666Z,2.88
2023-05-14T16:57:10.217Z,2.13
2023-05-14T16:59:36.855Z,2.20
2023-05-14T17:02:03.546Z,2.33
2023-05-14T17:04:31.675Z,6.57
2023-05-14T17:06:58.372Z,2.85
2023-05-14T17:09:24.928Z,2.67
2023-05-14T17:11:51.457Z,2.58
2023-05-14T17:14:18.068Z,1.67
2023-05-14T17:16:45.327Z,4.63
2023-05-14T17:19:12.417Z,1.70
2023-05-14T17:21:39.037Z,3.50
2023-05-14T17:24:05.898Z,3.17
2023-05-14T17:26:32.432Z,1.63
2023-05-14T17:28:58.970Z,9.07
2023-05-14T17:31:25.567Z,1.92
2023-05-14T17:33:52.096Z,7.85
2023-05-14T17:36:18.710Z,1.98
2023-05-14T17:38:45.401Z,3.78
2023-05-14T17:41:12.243Z,5.35
2023-05-14T17:43:38.790Z,2.08
2023-05-14T17:46:06.678Z,2.15
2023-05-14T17:48:33.395Z,3.08
2023-05-14T17:50:59.887Z,2.97
2023-05-14T17:53:26.509Z,1.80
2023-05-14T17:55:53.055Z,2.55
2023-05-14T17:58:19.726Z,1.83
2023-05-14T18:00:46.370Z,2.60
2023-05-14T18:03:14.585Z,3.05
2023-05-14T18:05:41.394Z,2.40
2023-05-14T18:08:09.458Z,2.80
2023-05-14T18:10:36.189Z,2.15
2023-05-14T18:13:02.858Z,2.17
2023-05-14T18:15:31.330Z,7.45
2023-05-14T18:17:58.009Z,2.92
2023-05-14T18:20:24.535Z,2.45
2023-05-14T18:22:52.181Z,3.03
2023-05-14T18:25:18.765Z,2.60
2023-05-14T18:27:45.566Z,2.88
2023-05-14T18:30:14.781Z,1.88
2023-05-14T18:32:44.185Z,4.90
2023-05-14T18:35:12.081Z,2.03
2023-05-14T18:37:38.685Z,2.00
2023-05-14T18:40:06.878Z,4.32
2023-05-14T18:42:34.057Z,6.93
2023-05-14T18:45:01.334Z,2.40
2023-05-14T18:47:27.958Z,5.68
2023-05-14T18:49:57.563Z,2.30
2023-05-14T18:52:24.595Z,6.68
2023-05-14T18:54:51.069Z,2.47
2023-05-14T18:57:17.813Z,2.33
2023-05-14T18:59:44.386Z,2.72
2023-05-14T19:02:11.217Z,5.72
2023-05-14T19:04:50.574Z,3.00
2023-05-14T19:07:18.948Z,1.80
2023-05-14T19:09:45.518Z,3.08
2023-05-14T19:12:12.589Z,2.80
2023-05-14T19:14:39.114Z,3.75
2023-05-14T19:17:05.884Z,1.85
2023-05-14T19:19:32.543Z,4.10
2023-05-14T19:21:59.255Z,3.30
2023-05-14T19:24:25.826Z,4.25
2023-05-14T19:26:52.585Z,2.25
2023-05-14T19:29:19.177Z,3.67
2023-05-14T19:31:46.099Z,1.40
2023-05-14T19:34:12.782Z,2.70
2023-05-14T19:36:39.320Z,2.47
2023-05-14T19:39:06.045Z,3.80
2023-05-14T19:41:32.570Z,2.63
2023-05-14T19:43:59.087Z,3.22
2023-05-14T19:46:26.138Z,3.08
2023-05-14T19:48:52.814Z,5.25
2023-05-14T19:51:19.608Z,5.65
2023-05-14T19:53:46.291Z,3.40
2023-05-14T19:56:12.868Z,2.65
2023-05-14T19:58:39.554Z,2.78
2023-05-14T20:01:06.157Z,3.65
2023-05-14T20:03:33.431Z,3.35
2023-05-14T20:06:00.075Z,4.40
2023-05-14T20:08:26.704Z,2.70
2023-05-14T20:10:53.261Z,4.82
2023-05-14T20:13:19.994Z,3.22
2023-05-14T20:15:46.635Z,2.35
2023-05-14T20:18:13.159Z,2.55
2023-05-14T20:20:39.916Z,2.55
2023-05-14T20:23:06.444Z,2.45
2023-05-14T20:25:33.287Z,2.88
2023-05-14T20:28:02.916Z,2.97
2023-05-14T20:30:29.634Z,5.15
2023-05-14T20:32:56.522Z,2.58
2023-05-14T20:35:23.331Z,2.58
2023-05-14T20:37:50.214Z,2.67
2023-05-14T20:40:17.054Z,5.82
2023-05-14T20:42:43.618Z,2.25
2023-05-14T20:45:10.807Z,5.07
2023-05-14T20:47:37.403Z,2.17
2023-05-14T20:50:04.697Z,5.20
2023-05-14T20:52:31.303Z,4.97
2023-05-14T20:55:00.114Z,4.05
2023-05-14T20:57:28.284Z,2.22
2023-05-14T20:59:54.837Z,3.28
2023-05-14T21:02:21.519Z,3.50
2023-05-14T21:04:48.222Z,3.22
2023-05-14T21:07:14.878Z,2.17
2023-05-14T21:09:41.879Z,2.50
2023-05-14T21:12:08.884Z,3.80
2023-05-14T21:14:35.474Z,3.42
2023-05-14T21:17:02.060Z,5.35
2023-05-14T21:19:28.600Z,9.15
2023-05-14T21:21:55.323Z,2.50
2023-05-14T21:24:21.848Z,3.47
2023-05-14T21:26:48.603Z,5.18
2023-05-14T21:29:15.299Z,5.43
2023-05-14T21:31:41.873Z,10.50
2023-05-14T21:34:08.549Z,11.68
2023-05-14T21:36:35.557Z,18.08
2023-05-14T21:39:02.128Z,9.15
2023-05-14T21:41:29.919Z,11.05
2023-05-14T21:43:56.549Z,16.50
2023-05-14T21:46:23.390Z,20.23
2023-05-14T21:48:50.092Z,19.50
2023-05-14T21:51:16.766Z,18.75
2023-05-14T21:53:43.425Z,13.32
2023-05-14T21:56:10.042Z,14.65
2023-05-14T21:58:36.644Z,8.85
2023-05-14T22:01:03.264Z,10.75
2023-05-14T22:03:30.038Z,15.10
2023-05-14T22:05:57.211Z,9.18
2023-05-14T22:08:23.753Z,6.90
2023-05-14T22:10:50.353Z,10.52
2023-05-14T22:13:16.878Z,10.20
2023-05-14T22:15:43.502Z,10.13
2023-05-14T22:18:10.472Z,13.00
2023-05-14T22:20:37.052Z,6.45
2023-05-14T22:23:03.617Z,6.30
2023-05-14T22:25:30.292Z,4.45
2023-05-14T22:27:56.833Z,4.60
2023-05-14T22:30:23.618Z,3.47
2023-05-14T22:32:50.243Z,4.57
2023-05-14T22:35:17.087Z,3.30
2023-05-14T22:37:43.646Z,6.70
2023-05-14T22:40:10.731Z,3.47
2023-05-14T22:42:37.285Z,4.22
2023-05-14T22:45:04.039Z,4.25
2023-05-14T22:47:30.961Z,6.20
2023-05-14T22:49:57.608Z,9.52
2023-05-14T22:52:25.557Z,12.85
2023-05-14T22:54:53.045Z,5.85
2023-05-14T22:57:19.516Z,4.03
2023-05-14T22:59:46.110Z,8.65
2023-05-14T23:02:12.700Z,4.70
2023-05-14T23:04:39.343Z,4.82
2023-05-14T23:07:05.850Z,6.10
2023-05-14T23:09:32.422Z,6.07
2023-05-14T23:11:58.924Z,4.53
2023-05-14T23:14:25.545Z,5.72
2023-05-14T23:16:52.126Z,9.23
2023-05-14T23:19:20.097Z,6.45
2023-05-14T23:21:46.704Z,9.93
2023-05-14T23:24:13.216Z,8.73
2023-05-14T23:26:39.754Z,10.27
2023-05-14T23:29:06.350Z,6.93
2023-05-14T23:31:32.893Z,10.00
2023-05-14T23:33:59.532Z,6.25
2023-05-14T23:36:26.100Z,11.05
2023-05-14T23:38:52.786Z,7.60
2023-05-14T23:41:19.429Z,6.05
2023-05-14T23:43:46.302Z,7.38
2023-05-14T23:46:12.988Z,6.18
2023-05-14T23:48:39.625Z,13.57
2023-05-14T23:51:06.163Z,9.73
2023-05-14T23:53:32.707Z,13.30
2023-05-14T23:55:59.327Z,8.68
2023-05-14T23:58:26.242Z,11.05
